createdAt,value
2018-02-08T00:02:21.927Z,42.22
2018-02-08T00:04:50.264Z,41.22
2018-02-08T00:07:18.614Z,42.97
2018-02-08T00:09:49.703Z,39.58
2018-02-08T00:12:18.026Z,42.00
2018-02-08T00:14:47.156Z,41.37
2018-02-08T00:17:15.475Z,41.55
2018-02-08T00:19:44.788Z,40.55
2018-02-08T00:22:31.685Z,43.15
2018-02-08T00:25:00.379Z,43.78
2018-02-08T00:27:28.713Z,39.20
2018-02-08T00:29:57.063Z,44.47
2018-02-08T00:32:25.411Z,38.70
2018-02-08T00:34:53.965Z,39.75
2018-02-08T00:37:22.294Z,44.10
2018-02-08T00:39:50.653Z,41.08
2018-02-08T00:42:19.762Z,40.22
2018-02-08T00:44:48.834Z,41.03
2018-02-08T00:47:17.199Z,45.67
2018-02-08T00:49:46.476Z,42.03
2018-02-08T00:52:14.830Z,40.53
2018-02-08T00:54:43.171Z,38.30
2018-02-08T00:57:12.252Z,40.40
2018-02-08T00:59:40.767Z,39.10
2018-02-08T01:02:10.051Z,40.38
2018-02-08T01:04:39.286Z,38.53
2018-02-08T01:07:07.773Z,42.92
2018-02-08T01:09:36.844Z,40.00
2018-02-08T01:12:05.187Z,41.80
2018-02-08T01:14:33.488Z,41.55
2018-02-08T01:17:02.588Z,41.75
2018-02-08T01:19:30.921Z,41.22
2018-02-08T01:21:59.240Z,41.72
2018-02-08T01:24:27.617Z,40.47
2018-02-08T01:26:55.989Z,39.97
2018-02-08T01:29:25.095Z,39.10
2018-02-08T01:31:53.405Z,40.05
2018-02-08T01:34:21.747Z,39.10
2018-02-08T01:36:50.210Z,39.90
2018-02-08T01:39:19.395Z,40.72
2018-02-08T01:41:48.692Z,37.50
2018-02-08T01:44:17.770Z,41.42
2018-02-08T01:46:46.109Z,41.72
2018-02-08T01:49:14.499Z,41.92
2018-02-08T01:51:42.822Z,42.35
2018-02-08T01:54:11.957Z,40.80
2018-02-08T01:56:40.438Z,40.17
2018-02-08T01:59:08.850Z,37.75
2018-02-08T02:01:37.413Z,40.63
2018-02-08T02:04:05.753Z,42.70
2018-02-08T02:06:34.079Z,45.95
2018-02-08T02:09:02.464Z,40.65
2018-02-08T02:11:30.777Z,39.95
2018-02-08T02:13:59.127Z,39.80
2018-02-08T02:16:27.451Z,38.22
2018-02-08T02:18:55.848Z,41.10
2018-02-08T02:21:24.188Z,41.95
2018-02-08T02:23:52.806Z,41.67
2018-02-08T02:26:21.142Z,40.30
2018-02-08T02:28:50.231Z,39.03
2018-02-08T02:31:18.558Z,40.20
2018-02-08T02:33:46.866Z,37.88
2018-02-08T02:36:16.054Z,41.05
2018-02-08T02:38:44.432Z,39.85
2018-02-08T02:41:12.748Z,40.03
2018-02-08T02:43:41.072Z,42.28
2018-02-08T02:46:09.371Z,39.95
2018-02-08T02:48:38.503Z,41.22
2018-02-08T02:51:07.557Z,41.42
2018-02-08T02:53:35.937Z,38.00
2018-02-08T02:56:05.036Z,41.30
2018-02-08T02:58:34.129Z,39.50
2018-02-08T03:01:03.235Z,38.97
2018-02-08T03:03:31.567Z,37.97
2018-02-08T03:05:59.898Z,40.58
2018-02-08T03:08:28.343Z,38.00
2018-02-08T03:10:57.509Z,41.17
2018-02-08T03:13:25.815Z,39.88
2018-02-08T03:15:54.129Z,42.60
2018-02-08T03:18:23.160Z,40.40
2018-02-08T03:20:51.514Z,38.70
2018-02-08T03:23:19.870Z,39.83
2018-02-08T03:25:49.030Z,39.85
2018-02-08T03:28:18.187Z,39.60
2018-02-08T03:33:52.658Z,40.40
2018-02-08T03:36:21.080Z,40.75
2018-02-08T03:38:49.448Z,38.75
2018-02-08T03:41:17.899Z,42.55
2018-02-08T03:43:46.254Z,40.50
2018-02-08T03:46:14.653Z,39.10
2018-02-08T03:48:42.959Z,40.00
2018-02-08T03:51:11.298Z,38.30
2018-02-08T03:53:39.609Z,40.67
2018-02-08T03:56:08.795Z,41.25
2018-02-08T03:58:37.964Z,40.22
2018-02-08T04:01:06.313Z,41.90
2018-02-08T04:03:34.759Z,43.92
2018-02-08T04:06:03.864Z,39.13
2018-02-08T04:08:33.005Z,42.08
2018-02-08T04:11:01.358Z,41.30
2018-02-08T04:13:29.715Z,42.17
2018-02-08T04:15:58.044Z,37.72
2018-02-08T04:18:26.394Z,38.25
2018-02-08T04:20:54.989Z,40.22
2018-02-08T04:23:23.511Z,41.15
2018-02-08T04:25:52.855Z,38.63
2018-02-08T04:28:21.199Z,36.80
2018-02-08T04:30:50.332Z,37.60
2018-02-08T04:33:18.838Z,37.03
2018-02-08T04:35:47.225Z,40.08
2018-02-08T04:38:18.433Z,40.10
2018-02-08T04:41:04.743Z,38.13
2018-02-08T04:43:50.836Z,39.92
2018-02-08T04:46:36.831Z,38.28
2018-02-08T04:49:05.300Z,40.65
2018-02-08T04:51:33.600Z,39.45
2018-02-08T04:54:01.985Z,40.15
2018-02-08T04:56:30.420Z,40.85
2018-02-08T04:58:58.729Z,39.72
2018-02-08T05:01:27.119Z,41.40
2018-02-08T05:03:56.267Z,41.90
2018-02-08T05:06:24.871Z,37.72
2018-02-08T05:08:53.190Z,41.05
2018-02-08T05:11:21.519Z,39.03
2018-02-08T05:13:50.202Z,38.10
2018-02-08T05:16:18.830Z,36.50
2018-02-08T05:18:47.906Z,42.62
2018-02-08T05:21:16.308Z,39.00
2018-02-08T05:23:45.471Z,40.70
2018-02-08T05:26:13.805Z,38.60
2018-02-08T05:28:42.245Z,41.17
2018-02-08T05:31:11.333Z,40.40
2018-02-08T05:33:40.565Z,38.75
2018-02-08T05:36:08.895Z,38.47
2018-02-08T05:38:38.051Z,40.35
2018-02-08T05:41:06.370Z,40.97
2018-02-08T05:43:34.706Z,37.58
2018-02-08T05:46:03.177Z,37.80
2018-02-08T05:48:31.490Z,37.83
2018-02-08T05:51:00.043Z,39.67
2018-02-08T05:53:28.382Z,37.42
2018-02-08T05:55:57.538Z,40.00
2018-02-08T05:58:26.319Z,41.17
2018-02-08T06:00:54.678Z,43.25
2018-02-08T06:03:23.043Z,38.40
2018-02-08T06:05:51.532Z,40.00
2018-02-08T06:08:19.872Z,40.97
2018-02-08T06:10:49.135Z,38.30
2018-02-08T06:13:17.686Z,39.30
2018-02-08T06:15:46.042Z,39.25
2018-02-08T06:18:14.468Z,40.03
2018-02-08T06:20:42.975Z,38.85
2018-02-08T06:23:12.065Z,36.88
2018-02-08T06:25:40.418Z,39.42
2018-02-08T06:28:08.839Z,37.60
2018-02-08T06:30:37.230Z,36.10
2018-02-08T06:33:06.294Z,37.40
2018-02-08T06:35:34.670Z,37.63
2018-02-08T06:38:03.821Z,37.60
2018-02-08T06:40:32.198Z,36.65
2018-02-08T06:43:00.779Z,37.25
2018-02-08T06:45:29.259Z,36.22
2018-02-08T06:47:57.636Z,40.33
2018-02-08T06:50:25.950Z,38.80
2018-02-08T06:52:54.304Z,41.97
2018-02-08T06:55:22.668Z,41.30
2018-02-08T06:57:51.114Z,42.00
2018-02-08T07:00:19.460Z,39.45
2018-02-08T07:02:47.801Z,38.42
2018-02-08T07:05:16.282Z,41.70
2018-02-08T07:07:44.601Z,43.00
2018-02-08T07:10:13.752Z,38.40
2018-02-08T07:12:42.176Z,39.92
2018-02-08T07:15:12.047Z,39.85
2018-02-08T07:17:40.480Z,37.20
2018-02-08T07:20:12.436Z,40.97
2018-02-08T07:22:40.785Z,43.42
2018-02-08T07:25:09.101Z,41.67
2018-02-08T07:27:38.520Z,42.10
2018-02-08T07:30:06.847Z,44.08
2018-02-08T07:32:37.642Z,38.28
2018-02-08T07:35:06.154Z,40.38
2018-02-08T07:37:34.547Z,40.05
2018-02-08T07:40:02.986Z,39.00
2018-02-08T07:42:31.329Z,38.47
2018-02-08T07:44:59.695Z,41.40
2018-02-08T07:47:28.782Z,45.35
2018-02-08T07:49:58.030Z,45.15
2018-02-08T07:52:26.463Z,39.55
2018-02-08T07:54:55.732Z,41.13
2018-02-08T07:57:25.726Z,40.55
2018-02-08T07:59:54.089Z,39.88
2018-02-08T08:02:22.398Z,41.95
2018-02-08T08:04:50.931Z,37.78
2018-02-08T08:07:19.294Z,41.37
2018-02-08T08:09:48.657Z,39.58
2018-02-08T08:12:17.254Z,40.25
2018-02-08T08:14:45.588Z,39.15
2018-02-08T08:17:13.930Z,36.75
2018-02-08T08:19:43.436Z,39.58
2018-02-08T08:22:12.618Z,38.20
2018-02-08T08:24:41.757Z,42.85
2018-02-08T08:27:10.662Z,41.10
2018-02-08T08:29:39.144Z,41.90
2018-02-08T08:32:07.454Z,37.60
2018-02-08T08:34:36.569Z,40.38
2018-02-08T08:37:06.317Z,39.08
2018-02-08T08:39:34.684Z,38.47
2018-02-08T08:42:03.097Z,36.85
2018-02-08T08:44:31.568Z,38.88
2018-02-08T08:46:59.927Z,39.35
2018-02-08T08:49:28.420Z,38.88
2018-02-08T08:51:56.761Z,39.38
2018-02-08T08:54:25.566Z,41.67
2018-02-08T08:56:53.997Z,40.53
2018-02-08T08:59:22.850Z,41.70
2018-02-08T09:01:52.253Z,40.63
2018-02-08T09:04:21.816Z,39.65
2018-02-08T09:06:50.276Z,42.05
2018-02-08T09:09:19.974Z,40.85
2018-02-08T09:11:50.977Z,43.17
2018-02-08T09:14:19.413Z,41.97
2018-02-08T09:16:47.994Z,43.55
2018-02-08T09:19:16.343Z,45.40
2018-02-08T09:21:44.783Z,41.33
2018-02-08T09:24:13.385Z,38.47
2018-02-08T09:26:42.745Z,41.37
2018-02-08T09:29:11.596Z,41.47
2018-02-08T09:31:41.911Z,39.95
2018-02-08T09:34:10.324Z,38.38
2018-02-08T09:36:39.388Z,38.38
2018-02-08T09:39:07.958Z,39.95
2018-02-08T09:41:38.235Z,39.80
2018-02-08T09:44:07.482Z,43.28
2018-02-08T09:46:37.236Z,40.25
2018-02-08T09:49:06.778Z,41.50
2018-02-08T09:51:36.414Z,41.78
2018-02-08T09:54:05.163Z,41.88
2018-02-08T09:56:34.098Z,44.00
2018-02-08T09:59:02.857Z,40.03
2018-02-08T10:01:31.954Z,44.53
2018-02-08T10:04:00.612Z,42.95
2018-02-08T10:06:29.594Z,40.22
2018-02-08T10:08:58.371Z,40.40
2018-02-08T10:11:27.077Z,43.67
2018-02-08T10:13:56.339Z,44.90
2018-02-08T10:16:28.171Z,45.28
2018-02-08T10:18:57.832Z,46.30
2018-02-08T10:21:28.671Z,47.70
2018-02-08T10:23:57.621Z,45.88
2018-02-08T10:26:26.621Z,46.30
2018-02-08T10:28:55.947Z,44.25
2018-02-08T10:31:24.839Z,44.22
2018-02-08T10:33:53.441Z,47.22
2018-02-08T10:36:22.285Z,46.15
2018-02-08T10:38:51.205Z,45.25
2018-02-08T10:41:20.242Z,46.70
2018-02-08T10:43:49.395Z,45.05
2018-02-08T10:46:19.509Z,45.35
2018-02-08T10:48:48.296Z,44.25
2018-02-08T10:51:17.402Z,45.10
2018-02-08T10:53:46.173Z,44.60
2018-02-08T10:56:14.685Z,47.70
2018-02-08T10:58:43.413Z,46.83
2018-02-08T11:01:12.029Z,43.78
2018-02-08T11:03:40.609Z,44.72
2018-02-08T11:06:09.301Z,47.90
2018-02-08T11:08:37.752Z,45.45
2018-02-08T11:11:06.247Z,44.45
2018-02-08T11:13:34.945Z,44.00
2018-02-08T11:16:03.677Z,46.08
2018-02-08T11:18:32.244Z,43.28
2018-02-08T11:21:00.941Z,45.20
2018-02-08T11:23:30.596Z,45.67
2018-02-08T11:26:00.406Z,44.67
2018-02-08T11:28:29.603Z,44.05
2018-02-08T11:30:58.302Z,45.03
2018-02-08T11:33:27.071Z,45.55
2018-02-08T11:35:56.167Z,44.67
2018-02-08T11:38:25.294Z,45.50
2018-02-08T11:40:54.182Z,43.33
2018-02-08T11:43:23.041Z,43.42
2018-02-08T11:45:51.927Z,43.35
2018-02-08T11:48:20.545Z,45.85
2018-02-08T11:50:49.809Z,43.08
2018-02-08T11:53:18.781Z,43.72
2018-02-08T11:55:47.871Z,43.08
2018-02-08T11:58:17.282Z,43.90
2018-02-08T12:00:46.245Z,47.72
2018-02-08T12:03:15.642Z,43.42
2018-02-08T12:05:45.035Z,44.33
2018-02-08T12:08:13.737Z,43.22
2018-02-08T12:10:42.725Z,46.92
2018-02-08T12:13:11.370Z,46.37
2018-02-08T12:15:39.981Z,42.50
2018-02-08T12:18:09.581Z,45.05
2018-02-08T12:20:38.409Z,44.38
2018-02-08T12:23:06.996Z,43.00
2018-02-08T12:25:35.559Z,45.80
2018-02-08T12:28:04.594Z,43.33
2018-02-08T12:30:35.011Z,41.65
2018-02-08T12:33:03.896Z,45.40
2018-02-08T12:35:34.842Z,44.20
2018-02-08T12:38:04.722Z,44.78
2018-02-08T12:40:34.057Z,43.58
2018-02-08T12:43:02.850Z,46.13
2018-02-08T12:45:32.946Z,43.22
2018-02-08T12:48:02.567Z,46.40
2018-02-08T12:50:31.230Z,43.47
2018-02-08T12:53:00.283Z,43.40
2018-02-08T12:55:29.178Z,43.40
2018-02-08T12:57:58.641Z,46.03
2018-02-08T13:00:27.324Z,44.53
2018-02-08T13:02:56.665Z,43.67
2018-02-08T13:05:26.385Z,43.90
2018-02-08T13:07:55.521Z,45.38
2018-02-08T13:10:24.754Z,41.17
2018-02-08T13:12:53.959Z,42.55
2018-02-08T13:15:23.206Z,39.72
2018-02-08T13:17:53.499Z,43.85
2018-02-08T13:20:21.945Z,42.60
2018-02-08T13:22:52.538Z,41.83
2018-02-08T13:25:21.738Z,42.65
2018-02-08T13:27:50.327Z,42.60
2018-02-08T13:30:19.499Z,42.92
2018-02-08T13:32:49.298Z,40.42
2018-02-08T13:35:18.100Z,44.03
2018-02-08T13:37:48.302Z,40.38
2018-02-08T13:40:23.642Z,41.92
2018-02-08T13:42:52.159Z,42.17
2018-02-08T13:45:30.622Z,45.00
2018-02-08T13:47:59.435Z,43.90
2018-02-08T13:53:54.243Z,43.97
2018-02-08T13:59:33.530Z,44.63
2018-02-08T14:02:03.129Z,44.92
2018-02-08T14:04:31.679Z,40.55
2018-02-08T14:07:01.208Z,44.08
2018-02-08T14:09:29.863Z,43.87
2018-02-08T14:12:00.216Z,44.47
2018-02-08T14:14:29.086Z,44.55
2018-02-08T14:16:58.715Z,44.78
2018-02-08T14:19:27.306Z,43.83
2018-02-08T14:21:55.940Z,42.80
2018-02-08T14:24:26.008Z,40.55
2018-02-08T14:26:55.041Z,44.15
2018-02-08T14:29:25.510Z,44.97
2018-02-08T14:31:54.514Z,42.67
2018-02-08T14:34:23.478Z,45.35
2018-02-08T14:36:52.242Z,43.58
2018-02-08T14:39:21.592Z,43.00
2018-02-08T14:41:51.734Z,45.72
2018-02-08T14:44:20.525Z,43.28
2018-02-08T14:46:49.699Z,43.15
2018-02-08T14:49:19.528Z,44.35
2018-02-08T14:51:48.971Z,42.72
2018-02-08T14:54:17.868Z,46.25
2018-02-08T14:56:46.323Z,44.35
2018-02-08T14:59:15.634Z,42.08
2018-02-08T15:01:48.793Z,43.50
2018-02-08T15:04:17.808Z,42.70
2018-02-08T15:06:47.501Z,42.25
2018-02-08T15:09:16.758Z,43.17
2018-02-08T15:11:46.202Z,42.15
2018-02-08T15:14:15.086Z,40.05
2018-02-08T15:16:44.917Z,42.10
2018-02-08T15:19:14.270Z,41.75
2018-02-08T15:21:42.997Z,40.60
2018-02-08T15:24:12.657Z,41.40
2018-02-08T15:26:41.450Z,39.83
2018-02-08T15:29:10.176Z,42.95
2018-02-08T15:31:40.665Z,43.25
2018-02-08T15:34:10.340Z,42.78
2018-02-08T15:36:39.042Z,43.38
2018-02-08T15:39:07.623Z,41.63
2018-02-08T15:41:37.339Z,43.00
2018-02-08T15:44:06.336Z,45.03
2018-02-08T15:46:34.749Z,43.28
2018-02-08T15:49:04.289Z,45.28
2018-02-08T15:51:33.235Z,41.90
2018-02-08T16:04:49.972Z,42.88
2018-02-08T16:07:18.374Z,41.97
2018-02-08T16:09:46.861Z,43.90
2018-02-08T16:12:15.567Z,44.00
2018-02-08T16:14:44.155Z,43.65
2018-02-08T16:17:13.467Z,42.00
2018-02-08T16:19:42.860Z,41.75
2018-02-08T16:22:12.378Z,41.70
2018-02-08T16:24:41.522Z,41.53
2018-02-08T16:27:10.877Z,44.97
2018-02-08T16:29:39.504Z,39.85
2018-02-08T16:32:08.583Z,42.33
2018-02-08T16:34:37.573Z,38.70
2018-02-08T16:37:06.967Z,44.20
2018-02-08T16:39:36.479Z,43.28
2018-02-08T16:42:05.422Z,40.12
2018-02-08T16:44:35.192Z,42.42
2018-02-08T16:47:04.244Z,45.10
2018-02-08T16:49:33.144Z,42.97
2018-02-08T16:52:01.593Z,41.47
2018-02-08T16:54:52.682Z,42.88
2018-02-08T16:57:22.486Z,44.03
2018-02-08T16:59:51.629Z,45.40
2018-02-08T17:02:21.679Z,43.63
2018-02-08T17:04:51.507Z,45.25
2018-02-08T17:07:20.195Z,42.95
2018-02-08T17:09:50.451Z,44.85
2018-02-08T17:12:19.008Z,42.17
2018-02-08T17:14:47.756Z,43.55
2018-02-08T17:17:16.663Z,44.08
2018-02-08T17:19:46.675Z,44.05
2018-02-08T17:25:17.449Z,41.85
2018-02-08T17:27:46.662Z,45.78
2018-02-08T17:30:15.751Z,41.72
2018-02-08T17:32:45.282Z,44.80
2018-02-08T17:35:14.576Z,45.53
2018-02-08T17:37:44.494Z,44.78
2018-02-08T17:40:14.368Z,40.22
2018-02-08T17:42:44.053Z,44.42
2018-02-08T17:45:13.166Z,42.35
2018-02-08T17:47:42.299Z,39.60
2018-02-08T17:50:12.135Z,42.95
2018-02-08T17:52:40.825Z,42.20
2018-02-08T17:55:10.082Z,43.78
2018-02-08T17:57:39.345Z,46.08
2018-02-08T18:00:08.605Z,42.55
2018-02-08T18:02:38.067Z,42.28
2018-02-08T18:05:07.161Z,46.00
2018-02-08T18:07:36.274Z,43.90
2018-02-08T18:10:05.411Z,44.80
2018-02-08T18:12:34.413Z,41.90
2018-02-08T18:15:03.009Z,43.63
2018-02-08T18:17:31.769Z,41.08
2018-02-08T18:20:00.960Z,43.67
2018-02-08T18:22:29.960Z,42.58
2018-02-08T18:24:58.981Z,45.50
2018-02-08T18:27:27.787Z,45.33
2018-02-08T18:29:57.237Z,42.40
2018-02-08T18:32:25.820Z,44.67
2018-02-08T18:34:55.646Z,44.17
2018-02-08T18:37:25.251Z,46.50
2018-02-08T18:39:53.853Z,40.88
2018-02-08T18:42:24.061Z,44.30
2018-02-08T18:44:53.947Z,42.17
2018-02-08T18:47:23.153Z,43.22
2018-02-08T18:49:51.893Z,45.03
2018-02-08T18:52:20.490Z,44.53
2018-02-08T18:54:48.978Z,43.08
2018-02-08T18:57:17.544Z,43.90
2018-02-08T18:59:46.093Z,42.42
2018-02-08T19:02:14.616Z,42.05
2018-02-08T19:04:43.185Z,44.45
2018-02-08T19:07:12.124Z,42.58
2018-02-08T19:09:41.505Z,43.05
2018-02-08T19:12:10.150Z,44.70
2018-02-08T19:14:38.777Z,52.30
2018-02-08T19:17:07.878Z,54.00
2018-02-08T19:19:36.814Z,48.30
2018-02-08T19:22:06.104Z,46.50
2018-02-08T19:24:34.955Z,48.25
2018-02-08T19:27:03.701Z,45.85
2018-02-08T19:29:33.004Z,50.22
2018-02-08T19:32:02.320Z,46.28
2018-02-08T19:34:30.871Z,48.60
2018-02-08T19:36:59.813Z,45.50
2018-02-08T19:39:29.244Z,48.05
2018-02-08T19:41:58.006Z,47.53
2018-02-08T19:44:29.466Z,45.72
2018-02-08T19:46:59.480Z,44.03
2018-02-08T19:49:29.645Z,45.28
2018-02-08T19:51:58.517Z,44.88
2018-02-08T19:57:14.474Z,45.90
2018-02-08T19:59:44.195Z,45.05
2018-02-08T20:02:13.687Z,44.38
2018-02-08T20:04:42.694Z,45.10
2018-02-08T20:07:11.529Z,42.97
2018-02-08T20:09:41.671Z,43.42
2018-02-08T20:12:10.691Z,42.97
2018-02-08T20:14:55.361Z,44.15
2018-02-08T20:17:25.593Z,43.20
2018-02-08T20:19:56.915Z,47.10
2018-02-08T20:22:26.004Z,45.12
2018-02-08T20:24:54.664Z,42.17
2018-02-08T20:27:23.590Z,41.78
2018-02-08T20:29:52.416Z,39.95
2018-02-08T20:32:21.342Z,38.60
2018-02-08T20:34:50.519Z,40.42
2018-02-08T20:37:19.974Z,35.75
2018-02-08T20:39:49.671Z,39.15
2018-02-08T20:42:23.933Z,38.20
2018-02-08T20:44:53.462Z,37.83
2018-02-08T20:47:22.488Z,36.90
2018-02-08T20:49:57.614Z,40.22
2018-02-08T20:52:26.208Z,41.42
2018-02-08T20:54:55.862Z,40.38
2018-02-08T20:57:25.286Z,36.38
2018-02-08T20:59:53.785Z,39.35
2018-02-08T21:02:23.197Z,39.00
2018-02-08T21:04:51.864Z,37.58
2018-02-08T21:07:20.824Z,38.13
2018-02-08T21:09:49.411Z,35.97
2018-02-08T21:12:18.515Z,38.33
2018-02-08T21:14:47.347Z,36.28
2018-02-08T21:17:16.856Z,38.35
2018-02-08T21:19:47.374Z,35.58
2018-02-08T21:22:17.452Z,35.67
2018-02-08T21:24:46.096Z,37.08
2018-02-08T21:27:15.149Z,36.08
2018-02-08T21:29:44.251Z,38.05
2018-02-08T21:32:13.040Z,36.47
2018-02-08T21:34:42.242Z,37.13
2018-02-08T21:37:11.055Z,36.53
2018-02-08T21:39:40.898Z,37.38
2018-02-08T21:42:09.685Z,38.83
2018-02-08T21:44:38.127Z,37.80
2018-02-08T21:47:06.742Z,40.15
2018-02-08T21:49:35.912Z,38.50
2018-02-08T21:52:05.288Z,39.40
2018-02-08T21:54:33.775Z,39.85
2018-02-08T21:57:02.164Z,42.47
2018-02-08T21:59:30.515Z,39.95
2018-02-08T22:01:58.978Z,40.28
2018-02-08T22:04:27.395Z,37.75
2018-02-08T22:06:55.824Z,40.05
2018-02-08T22:09:24.306Z,37.90
2018-02-08T22:11:52.648Z,40.15
2018-02-08T22:14:22.533Z,38.95
2018-02-08T22:16:52.512Z,37.35
2018-02-08T22:19:21.652Z,40.28
2018-02-08T22:21:50.205Z,37.85
2018-02-08T22:24:18.958Z,40.40
2018-02-08T22:26:47.395Z,39.22
2018-02-08T22:29:16.553Z,42.75
2018-02-08T22:31:44.975Z,40.38
2018-02-08T22:34:13.362Z,40.55
2018-02-08T22:36:42.555Z,40.08
2018-02-08T22:39:10.931Z,40.95
2018-02-08T22:41:40.960Z,40.00
2018-02-08T22:44:09.327Z,43.13
2018-02-08T22:46:37.969Z,41.75
2018-02-08T22:49:06.519Z,42.92
2018-02-08T22:51:35.090Z,41.17
2018-02-08T22:54:03.434Z,41.33
2018-02-08T22:56:31.962Z,40.55
2018-02-08T23:04:56.734Z,41.10
2018-02-08T23:25:12.187Z,40.35
2018-02-08T23:27:40.894Z,41.95
2018-02-08T23:30:09.408Z,43.15
2018-02-08T23:32:37.746Z,41.65
2018-02-08T23:35:06.120Z,42.15
2018-02-08T23:37:34.444Z,42.20
2018-02-08T23:40:02.851Z,41.83
2018-02-08T23:42:31.983Z,43.83
